Time;durP1;ratioP1;P1;durP2;ratioP2;P2;SDS_P1;SDS_P2;PMS_P1;PMS_P2;Temp;Humidity;BMP_temperature;BMP_pressure;BME280_temperature;BME280_humidity;BME280_pressure;Samples;Min_cycle;Max_cycle;Signal;HPM_P1;HPM_P2
2022/03/05 00:00:55;;;;;;;16.73;12.77;;;;;;;;;;5058670;28;20031;-68
2022/03/05 00:03:21;;;;;;;13.80;12.43;;;;;;;;;;5055309;28;20060;-68
2022/03/05 00:05:47;;;;;;;15.85;12.20;;;;;;;;;;5056072;28;20083;-66
2022/03/05 00:08:13;;;;;;;13.68;12.27;;;;;;;;;;5059589;28;20036;-69
2022/03/05 00:10:39;;;;;;;14.52;12.65;;;;;;;;;;5044553;28;20090;-68
2022/03/05 00:13:05;;;;;;;14.40;12.88;;;;;;;;;;5055364;28;20396;-68
2022/03/05 00:15:32;;;;;;;17.45;12.77;;;;;;;;;;5054561;28;20035;-69
2022/03/05 00:17:58;;;;;;;13.20;11.85;;;;;;;;;;5062715;28;20104;-68
2022/03/05 00:20:25;;;;;;;12.82;11.55;;;;;;;;;;5043465;28;20527;-69
2022/03/05 00:22:52;;;;;;;13.07;11.85;;;;;;;;;;5056655;28;20044;-68
2022/03/05 00:25:21;;;;;;;17.15;12.65;;;;;;;;;;5058454;28;20059;-68
2022/03/05 00:27:47;;;;;;;15.40;12.40;;;;;;;;;;5059242;28;20140;-69
2022/03/05 00:30:14;;;;;;;13.23;11.93;;;;;;;;;;5055587;28;20028;-68
2022/03/05 00:32:39;;;;;;;13.77;12.38;;;;;;;;;;5057309;28;20081;-68
2022/03/05 00:35:06;;;;;;;13.95;12.55;;;;;;;;;;5058883;28;20441;-68
2022/03/05 00:37:32;;;;;;;13.45;12.00;;;;;;;;;;5054316;28;20506;-67
2022/03/05 00:39:58;;;;;;;14.02;12.30;;;;;;;;;;5056339;28;20090;-67
2022/03/05 00:42:24;;;;;;;15.13;12.23;;;;;;;;;;5041924;28;20039;-68
2022/03/05 00:44:49;;;;;;;12.15;11.05;;;;;;;;;;5058103;28;20502;-69
2022/03/05 00:47:16;;;;;;;12.60;11.40;;;;;;;;;;5055862;28;20153;-67
2022/03/05 00:49:42;;;;;;;16.40;12.38;;;;;;;;;;5056857;28;20032;-67
2022/03/05 00:52:08;;;;;;;12.30;11.27;;;;;;;;;;5052907;28;20500;-67
2022/03/05 00:54:34;;;;;;;13.05;11.80;;;;;;;;;;5053738;28;20037;-67
2022/03/05 00:56:59;;;;;;;15.55;11.45;;;;;;;;;;5059367;28;20029;-67
2022/03/05 00:59:25;;;;;;;12.55;11.43;;;;;;;;;;5057104;28;20052;-68
2022/03/05 01:01:51;;;;;;;12.85;11.55;;;;;;;;;;5059168;28;20039;-68
2022/03/05 01:04:16;;;;;;;13.43;12.07;;;;;;;;;;5057943;28;20039;-68
2022/03/05 01:06:42;;;;;;;14.05;12.35;;;;;;;;;;5056329;28;20040;-67
2022/03/05 01:09:08;;;;;;;11.90;10.75;;;;;;;;;;5072116;28;20116;-68
2022/03/05 01:11:33;;;;;;;11.85;10.48;;;;;;;;;;5048927;28;20033;-67
2022/03/05 01:13:59;;;;;;;11.52;10.48;;;;;;;;;;5032735;28;20057;-68
2022/03/05 01:16:24;;;;;;;16.48;12.80;;;;;;;;;;5048308;28;20430;-66
2022/03/05 01:18:50;;;;;;;14.07;12.27;;;;;;;;;;5056782;28;20052;-67
2022/03/05 01:21:16;;;;;;;14.52;12.45;;;;;;;;;;5046783;28;20025;-67
2022/03/05 01:23:42;;;;;;;12.52;11.35;;;;;;;;;;5032188;28;20123;-67
2022/03/05 01:26:08;;;;;;;13.82;12.40;;;;;;;;;;5040838;28;20119;-68
2022/03/05 01:28:34;;;;;;;13.32;11.63;;;;;;;;;;5050737;28;20132;-69
2022/03/05 01:31:00;;;;;;;14.13;12.18;;;;;;;;;;5031704;28;20037;-68
2022/03/05 01:33:26;;;;;;;13.73;12.18;;;;;;;;;;5031128;28;20103;-68
2022/03/05 01:35:52;;;;;;;13.75;12.07;;;;;;;;;;5029321;28;20409;-68
2022/03/05 01:38:18;;;;;;;13.98;12.07;;;;;;;;;;5049178;28;20032;-69
2022/03/05 01:40:45;;;;;;;13.02;11.73;;;;;;;;;;5047191;28;20273;-69
2022/03/05 01:43:11;;;;;;;13.35;11.95;;;;;;;;;;5032959;28;20040;-69
2022/03/05 01:45:37;;;;;;;14.60;13.10;;;;;;;;;;5051665;28;20098;-68
2022/03/05 01:48:03;;;;;;;14.20;11.90;;;;;;;;;;5040111;28;20033;-67
2022/03/05 01:50:33;;;;;;;13.57;12.07;;;;;;;;;;5045680;28;20418;-69
2022/03/05 01:52:59;;;;;;;15.35;12.48;;;;;;;;;;5050776;28;20485;-69
2022/03/05 01:55:25;;;;;;;16.50;12.32;;;;;;;;;;5051129;28;20093;-69
2022/03/05 01:57:51;;;;;;;14.77;12.80;;;;;;;;;;5045727;28;20428;-69
2022/03/05 02:00:18;;;;;;;13.95;11.57;;;;;;;;;;5022634;28;20048;-67
2022/03/05 02:02:45;;;;;;;15.05;12.70;;;;;;;;;;5028972;28;20120;-69
2022/03/05 02:05:13;;;;;;;14.73;11.77;;;;;;;;;;5063378;28;20040;-67
2022/03/05 02:07:41;;;;;;;13.65;12.20;;;;;;;;;;5048088;28;20094;-67
2022/03/05 02:10:08;;;;;;;13.68;11.32;;;;;;;;;;5047625;28;20040;-69
2022/03/05 02:12:35;;;;;;;13.27;11.90;;;;;;;;;;5051439;28;20067;-67
2022/03/05 02:15:03;;;;;;;13.27;12.02;;;;;;;;;;5053960;28;20048;-69
2022/03/05 02:17:29;;;;;;;18.27;12.82;;;;;;;;;;5053575;28;20048;-68
2022/03/05 02:19:55;;;;;;;16.75;13.10;;;;;;;;;;5047430;28;20503;-67
2022/03/05 02:22:21;;;;;;;13.82;12.35;;;;;;;;;;5048233;28;20215;-68
2022/03/05 02:24:50;;;;;;;18.20;12.93;;;;;;;;;;5055904;28;20056;-69
2022/03/05 02:27:16;;;;;;;12.52;10.95;;;;;;;;;;5054056;28;20040;-68
2022/03/05 02:29:42;;;;;;;11.57;10.52;;;;;;;;;;5053045;28;20076;-68
2022/03/05 02:32:08;;;;;;;13.75;12.00;;;;;;;;;;5054284;28;20163;-69
2022/03/05 02:34:34;;;;;;;14.35;12.68;;;;;;;;;;5055438;28;20037;-68
2022/03/05 02:37:00;;;;;;;14.30;12.88;;;;;;;;;;5050118;28;20049;-68
2022/03/05 02:39:26;;;;;;;12.27;11.05;;;;;;;;;;5051923;28;20063;-69
2022/03/05 02:41:52;;;;;;;17.30;13.80;;;;;;;;;;5053148;28;20056;-68
2022/03/05 02:44:18;;;;;;;14.90;12.57;;;;;;;;;;5048719;28;20041;-69
2022/03/05 02:46:44;;;;;;;16.98;12.80;;;;;;;;;;5053935;28;20036;-69
2022/03/05 02:49:10;;;;;;;15.15;13.10;;;;;;;;;;5054192;28;20043;-68
2022/03/05 02:51:35;;;;;;;17.90;12.85;;;;;;;;;;5050516;28;20045;-69
2022/03/05 02:54:01;;;;;;;13.02;11.68;;;;;;;;;;5054808;28;20044;-68
2022/03/05 02:56:27;;;;;;;13.75;12.45;;;;;;;;;;5037015;28;20115;-68
2022/03/05 02:58:53;;;;;;;16.33;13.18;;;;;;;;;;5035352;28;20047;-68
2022/03/05 03:01:19;;;;;;;15.20;13.55;;;;;;;;;;5052636;28;20043;-67
2022/03/05 03:03:45;;;;;;;16.00;12.77;;;;;;;;;;5052298;28;20040;-69
2022/03/05 03:06:11;;;;;;;13.57;12.07;;;;;;;;;;5057325;28;20041;-68
2022/03/05 03:08:36;;;;;;;12.68;11.30;;;;;;;;;;5051806;28;20105;-68
2022/03/05 03:11:02;;;;;;;15.40;13.50;;;;;;;;;;5035081;28;20120;-68
2022/03/05 03:13:27;;;;;;;12.70;11.38;;;;;;;;;;5053327;28;20043;-67
2022/03/05 03:15:53;;;;;;;17.00;13.10;;;;;;;;;;5054895;28;20037;-68
2022/03/05 03:18:20;;;;;;;14.68;13.15;;;;;;;;;;5051246;28;20082;-68
2022/03/05 03:20:46;;;;;;;14.55;12.10;;;;;;;;;;5051709;28;20044;-68
2022/03/05 03:23:13;;;;;;;15.90;13.10;;;;;;;;;;5055010;28;20480;-67
2022/03/05 03:25:39;;;;;;;15.25;13.63;;;;;;;;;;5044243;28;20079;-69
2022/03/05 03:28:06;;;;;;;17.60;13.07;;;;;;;;;;5050053;28;20037;-67
2022/03/05 03:30:31;;;;;;;13.77;12.35;;;;;;;;;;5052748;28;20279;-68
2022/03/05 03:32:57;;;;;;;15.40;12.93;;;;;;;;;;5049795;28;20443;-68
2022/03/05 03:35:22;;;;;;;13.32;11.95;;;;;;;;;;5047061;28;20041;-68
2022/03/05 03:37:49;;;;;;;13.52;12.15;;;;;;;;;;5050922;28;20029;-68
2022/03/05 03:40:16;;;;;;;13.60;12.20;;;;;;;;;;5051711;28;20028;-68
2022/03/05 03:42:44;;;;;;;17.48;13.23;;;;;;;;;;5035136;28;20037;-67
2022/03/05 03:45:10;;;;;;;12.63;11.38;;;;;;;;;;5062433;28;20076;-68
2022/03/05 03:47:36;;;;;;;15.77;13.18;;;;;;;;;;5047079;28;20068;-68
2022/03/05 03:50:05;;;;;;;17.77;13.50;;;;;;;;;;5051034;28;20397;-68
2022/03/05 03:52:31;;;;;;;15.87;14.20;;;;;;;;;;5052940;28;20036;-67
2022/03/05 03:54:57;;;;;;;19.55;14.15;;;;;;;;;;5050620;28;20029;-67
2022/03/05 03:57:22;;;;;;;13.40;12.07;;;;;;;;;;5034820;28;20694;-67
2022/03/05 03:59:51;;;;;;;16.00;13.02;;;;;;;;;;5045451;28;20499;-68
2022/03/05 04:02:19;;;;;;;15.90;12.93;;;;;;;;;;5048070;28;20449;-67
2022/03/05 04:04:45;;;;;;;15.77;12.63;;;;;;;;;;5049773;28;20127;-67
2022/03/05 04:09:56;;;;;;;15.40;13.32;;;;;;;;;;5044644;28;20100;-68
2022/03/05 04:12:23;;;;;;;15.98;13.38;;;;;;;;;;5049122;28;20511;-68
2022/03/05 04:14:49;;;;;;;16.42;13.73;;;;;;;;;;5051275;28;20035;-68
2022/03/05 04:17:15;;;;;;;19.02;13.88;;;;;;;;;;5035292;28;20090;-69
2022/03/05 04:19:42;;;;;;;14.43;12.82;;;;;;;;;;5051795;28;20397;-68
2022/03/05 04:22:08;;;;;;;16.08;13.50;;;;;;;;;;5047193;28;20204;-68
2022/03/05 04:24:33;;;;;;;17.88;13.25;;;;;;;;;;5050475;28;20036;-68
2022/03/05 04:26:59;;;;;;;18.33;13.55;;;;;;;;;;5054621;28;20302;-69
2022/03/05 04:29:25;;;;;;;17.42;13.43;;;;;;;;;;5050284;28;20396;-68
2022/03/05 04:31:51;;;;;;;17.55;13.88;;;;;;;;;;5039738;28;20412;-69
2022/03/05 04:34:17;;;;;;;15.65;13.55;;;;;;;;;;5048957;28;20045;-68
2022/03/05 04:36:43;;;;;;;16.92;13.80;;;;;;;;;;5051577;28;20115;-68
2022/03/05 04:39:08;;;;;;;16.92;13.40;;;;;;;;;;5055160;28;20483;-68
2022/03/05 04:41:34;;;;;;;15.13;12.95;;;;;;;;;;5045858;28;20500;-68
2022/03/05 04:44:00;;;;;;;17.30;13.02;;;;;;;;;;5049714;28;20286;-68
2022/03/05 04:46:25;;;;;;;16.70;14.05;;;;;;;;;;5054420;28;20037;-67
2022/03/05 04:48:51;;;;;;;16.23;13.70;;;;;;;;;;5055793;28;20095;-67
2022/03/05 04:51:16;;;;;;;18.63;14.00;;;;;;;;;;5051529;28;20032;-68
2022/03/05 04:53:42;;;;;;;16.80;14.63;;;;;;;;;;5048337;28;20689;-68
2022/03/05 04:56:08;;;;;;;15.85;13.15;;;;;;;;;;5034333;28;20037;-68
2022/03/05 04:58:33;;;;;;;16.70;13.73;;;;;;;;;;5045989;28;20078;-67
2022/03/05 05:00:59;;;;;;;20.88;14.23;;;;;;;;;;5052862;28;20040;-68
2022/03/05 05:03:24;;;;;;;18.02;13.63;;;;;;;;;;5049388;28;20045;-68
2022/03/05 05:05:50;;;;;;;17.92;14.70;;;;;;;;;;5031315;28;20068;-67
2022/03/05 05:08:16;;;;;;;15.07;13.38;;;;;;;;;;5048115;28;20037;-67
2022/03/05 05:10:41;;;;;;;16.55;13.55;;;;;;;;;;5050096;28;20454;-67
2022/03/05 05:13:08;;;;;;;15.55;13.43;;;;;;;;;;5052153;28;20086;-67
2022/03/05 05:15:33;;;;;;;17.20;13.13;;;;;;;;;;5043960;28;20068;-67
2022/03/05 05:18:00;;;;;;;21.40;15.25;;;;;;;;;;5049877;28;20579;-67
2022/03/05 05:20:26;;;;;;;19.23;14.88;;;;;;;;;;5048390;28;20104;-67
2022/03/05 05:22:51;;;;;;;21.33;15.18;;;;;;;;;;5050418;28;20128;-67
2022/03/05 05:25:17;;;;;;;20.98;15.05;;;;;;;;;;5043864;28;20064;-67
2022/03/05 05:27:43;;;;;;;18.60;14.55;;;;;;;;;;5047616;28;20048;-66
2022/03/05 05:30:09;;;;;;;22.67;15.43;;;;;;;;;;5054312;28;20090;-67
2022/03/05 05:32:35;;;;;;;24.10;15.30;;;;;;;;;;5053832;28;20083;-67
2022/03/05 05:35:01;;;;;;;23.90;15.50;;;;;;;;;;5046791;28;20049;-67
2022/03/05 05:37:26;;;;;;;19.02;13.88;;;;;;;;;;5049022;28;20037;-67
2022/03/05 05:39:52;;;;;;;25.05;16.33;;;;;;;;;;5053706;28;20039;-66
2022/03/05 05:42:18;;;;;;;20.60;14.25;;;;;;;;;;5026932;28;20029;-66
2022/03/05 05:44:43;;;;;;;19.23;15.98;;;;;;;;;;5048394;28;20028;-67
2022/03/05 05:47:09;;;;;;;21.13;14.82;;;;;;;;;;5049188;28;20469;-67
2022/03/05 05:49:35;;;;;;;17.88;14.38;;;;;;;;;;5038409;28;20036;-67
2022/03/05 05:52:02;;;;;;;17.23;14.05;;;;;;;;;;5046328;28;20931;-67
2022/03/05 05:54:28;;;;;;;18.75;14.77;;;;;;;;;;5035058;28;20538;-67
2022/03/05 05:56:54;;;;;;;24.27;15.43;;;;;;;;;;5049624;28;20041;-67
2022/03/05 05:59:20;;;;;;;20.20;14.90;;;;;;;;;;5031078;28;20083;-67
2022/03/05 06:01:45;;;;;;;24.92;15.48;;;;;;;;;;5052015;28;20626;-68
2022/03/05 06:04:11;;;;;;;18.48;14.07;;;;;;;;;;5053869;28;20377;-68
2022/03/05 06:06:37;;;;;;;21.70;15.10;;;;;;;;;;5052955;28;20037;-68
2022/03/05 06:09:02;;;;;;;17.98;13.90;;;;;;;;;;5062026;28;20054;-68
2022/03/05 06:11:29;;;;;;;22.27;15.20;;;;;;;;;;5059852;28;20037;-68
2022/03/05 06:13:56;;;;;;;20.73;15.05;;;;;;;;;;5056348;28;20526;-68
2022/03/05 06:16:22;;;;;;;18.35;14.68;;;;;;;;;;5058723;28;20479;-68
2022/03/05 06:18:48;;;;;;;22.13;15.40;;;;;;;;;;5063388;28;20508;-68
2022/03/05 06:21:15;;;;;;;25.77;15.43;;;;;;;;;;5039992;28;20592;-68
2022/03/05 06:23:40;;;;;;;21.10;14.40;;;;;;;;;;5057668;28;20115;-68
2022/03/05 06:26:07;;;;;;;17.00;15.00;;;;;;;;;;5060835;28;20051;-68
2022/03/05 06:28:33;;;;;;;22.35;15.98;;;;;;;;;;5062146;28;20041;-68
2022/03/05 06:30:59;;;;;;;20.73;15.95;;;;;;;;;;5054431;28;20028;-68
2022/03/05 06:33:26;;;;;;;20.75;16.05;;;;;;;;;;5058561;28;20086;-68
2022/03/05 06:35:52;;;;;;;23.77;17.55;;;;;;;;;;5060934;28;20049;-68
2022/03/05 06:38:17;;;;;;;23.98;15.82;;;;;;;;;;5056194;28;20486;-68
2022/03/05 06:40:44;;;;;;;21.63;15.68;;;;;;;;;;5060049;28;20071;-68
2022/03/05 06:43:10;;;;;;;24.67;16.85;;;;;;;;;;5060827;28;20577;-68
2022/03/05 06:45:36;;;;;;;68.63;41.50;;;;;;;;;;5054651;28;20262;-68
2022/03/05 06:48:03;;;;;;;22.85;17.25;;;;;;;;;;5059399;28;20033;-67
2022/03/05 06:50:28;;;;;;;22.30;16.65;;;;;;;;;;5061106;28;20033;-68
2022/03/05 06:52:54;;;;;;;26.38;18.02;;;;;;;;;;5056209;28;20052;-68
2022/03/05 06:55:20;;;;;;;29.77;17.95;;;;;;;;;;5056103;28;20044;-68
2022/03/05 06:57:46;;;;;;;22.65;15.82;;;;;;;;;;5060529;28;20036;-68
2022/03/05 07:00:13;;;;;;;24.30;16.85;;;;;;;;;;5056435;28;20036;-68
2022/03/05 07:02:39;;;;;;;26.88;18.15;;;;;;;;;;5055677;28;20544;-67
2022/03/05 07:05:05;;;;;;;18.70;15.35;;;;;;;;;;5074580;28;20530;-66
2022/03/05 07:07:31;;;;;;;22.02;16.33;;;;;;;;;;5058967;28;20036;-66
2022/03/05 07:09:57;;;;;;;25.83;16.27;;;;;;;;;;5059503;28;20037;-67
2022/03/05 07:12:23;;;;;;;23.17;16.27;;;;;;;;;;5041960;28;20039;-66
2022/03/05 07:14:51;;;;;;;25.58;18.27;;;;;;;;;;5058909;28;20036;-67
2022/03/05 07:17:16;;;;;;;23.65;17.35;;;;;;;;;;5019582;28;20130;-67
2022/03/05 07:19:42;;;;;;;24.58;17.48;;;;;;;;;;5059054;28;20225;-66
2022/03/05 07:22:08;;;;;;;23.23;16.83;;;;;;;;;;5056998;28;20078;-66
2022/03/05 07:24:34;;;;;;;24.77;17.63;;;;;;;;;;5058739;28;20033;-66
2022/03/05 07:27:00;;;;;;;21.95;16.77;;;;;;;;;;5058906;28;20055;-66
2022/03/05 07:29:26;;;;;;;22.48;16.67;;;;;;;;;;5073063;28;20040;-66
2022/03/05 07:31:51;;;;;;;24.27;16.45;;;;;;;;;;5054829;28;20069;-67
2022/03/05 07:34:17;;;;;;;21.60;16.45;;;;;;;;;;5058329;28;20531;-67
2022/03/05 07:36:43;;;;;;;23.33;16.52;;;;;;;;;;5041901;28;20037;-67
2022/03/05 07:39:09;;;;;;;23.95;16.23;;;;;;;;;;5058453;28;20028;-67
2022/03/05 07:41:37;;;;;;;26.27;17.10;;;;;;;;;;5054513;28;20036;-67
2022/03/05 07:44:04;;;;;;;21.55;17.13;;;;;;;;;;5050068;28;20120;-67
2022/03/05 07:46:30;;;;;;;23.38;17.45;;;;;;;;;;5051032;28;20119;-67
2022/03/05 07:48:56;;;;;;;25.45;17.45;;;;;;;;;;5057322;28;20131;-67
2022/03/05 07:51:21;;;;;;;26.52;17.85;;;;;;;;;;5050096;28;20502;-67
2022/03/05 07:53:47;;;;;;;23.92;18.83;;;;;;;;;;5052719;28;20552;-67
2022/03/05 07:56:13;;;;;;;28.17;19.02;;;;;;;;;;5049697;28;20127;-67
2022/03/05 07:58:38;;;;;;;26.90;18.60;;;;;;;;;;5030504;28;20114;-67
2022/03/05 08:01:04;;;;;;;26.45;18.67;;;;;;;;;;5058246;28;20046;-67
2022/03/05 08:03:30;;;;;;;25.33;18.73;;;;;;;;;;5053405;28;20024;-67
2022/03/05 08:05:56;;;;;;;25.35;19.30;;;;;;;;;;5054339;28;20152;-67
2022/03/05 08:08:21;;;;;;;25.00;19.10;;;;;;;;;;5048676;28;20500;-68
2022/03/05 08:10:47;;;;;;;24.40;20.35;;;;;;;;;;5054878;28;20067;-68
2022/03/05 08:13:13;;;;;;;24.40;19.85;;;;;;;;;;5054838;28;20111;-68
2022/03/05 08:15:38;;;;;;;26.52;19.08;;;;;;;;;;5053801;28;20141;-68
2022/03/05 08:18:04;;;;;;;25.77;18.48;;;;;;;;;;5055345;28;20071;-68
2022/03/05 08:20:31;;;;;;;23.50;19.48;;;;;;;;;;5053003;28;20087;-68
2022/03/05 08:22:58;;;;;;;22.20;18.02;;;;;;;;;;5050029;28;20547;-68
2022/03/05 08:25:24;;;;;;;24.02;18.42;;;;;;;;;;5053756;28;20089;-68
2022/03/05 08:27:50;;;;;;;22.17;19.45;;;;;;;;;;5052894;28;20070;-68
2022/03/05 08:30:17;;;;;;;25.42;20.15;;;;;;;;;;5051741;28;20071;-68
2022/03/05 08:32:43;;;;;;;38.00;20.73;;;;;;;;;;5049086;28;20072;-68
2022/03/05 08:35:10;;;;;;;55.88;35.25;;;;;;;;;;5050659;28;20041;-68
2022/03/05 08:37:37;;;;;;;25.05;20.00;;;;;;;;;;5049557;28;20040;-69
2022/03/05 08:40:08;;;;;;;25.48;19.25;;;;;;;;;;5050765;28;20036;-68
2022/03/05 08:42:34;;;;;;;24.58;18.65;;;;;;;;;;5052650;28;20033;-68
2022/03/05 08:45:01;;;;;;;25.63;18.73;;;;;;;;;;5049677;28;20029;-69
2022/03/05 08:47:27;;;;;;;22.23;18.58;;;;;;;;;;5053178;28;20183;-69
2022/03/05 08:49:53;;;;;;;26.70;20.65;;;;;;;;;;5053390;28;20163;-69
2022/03/05 08:52:19;;;;;;;26.15;20.35;;;;;;;;;;5055535;28;20053;-69
2022/03/05 08:54:44;;;;;;;25.50;19.40;;;;;;;;;;5050450;28;20044;-69
2022/03/05 08:57:11;;;;;;;28.23;20.90;;;;;;;;;;5039554;28;20033;-69
2022/03/05 08:59:38;;;;;;;20.90;18.70;;;;;;;;;;5037446;28;20044;-69
2022/03/05 09:02:04;;;;;;;25.35;18.70;;;;;;;;;;5051844;28;20047;-68
2022/03/05 09:04:30;;;;;;;105.43;59.85;;;;;;;;;;5028207;28;20044;-68
2022/03/05 09:06:56;;;;;;;33.22;22.15;;;;;;;;;;5052322;28;20041;-68
2022/03/05 09:09:22;;;;;;;88.50;35.75;;;;;;;;;;5057378;28;20036;-68
2022/03/05 09:11:47;;;;;;;46.70;24.77;;;;;;;;;;5051554;28;20036;-68
2022/03/05 09:14:13;;;;;;;27.30;21.00;;;;;;;;;;5049993;28;20048;-68
2022/03/05 09:16:39;;;;;;;23.92;19.13;;;;;;;;;;5032773;28;20078;-68
2022/03/05 09:19:05;;;;;;;22.00;19.17;;;;;;;;;;5056450;28;20047;-68
2022/03/05 09:21:32;;;;;;;23.70;19.10;;;;;;;;;;5065479;28;20032;-68
2022/03/05 09:23:58;;;;;;;26.02;19.70;;;;;;;;;;5046479;28;20025;-67
2022/03/05 09:26:24;;;;;;;21.60;18.02;;;;;;;;;;5048393;28;20087;-68
2022/03/05 09:28:50;;;;;;;20.33;17.92;;;;;;;;;;5056313;28;20408;-67
2022/03/05 09:31:16;;;;;;;23.02;18.63;;;;;;;;;;5046191;28;20124;-68
2022/03/05 09:33:42;;;;;;;25.00;17.90;;;;;;;;;;5032923;28;20128;-68
2022/03/05 09:36:08;;;;;;;18.65;16.70;;;;;;;;;;5053381;28;20519;-68
2022/03/05 09:38:34;;;;;;;19.73;17.15;;;;;;;;;;5051859;28;20484;-68
2022/03/05 09:41:04;;;;;;;20.85;17.70;;;;;;;;;;5045727;28;20120;-68
2022/03/05 09:43:30;;;;;;;18.90;16.92;;;;;;;;;;5051141;28;20091;-67
2022/03/05 09:45:59;;;;;;;20.17;17.38;;;;;;;;;;5051264;28;20037;-68
2022/03/05 09:48:29;;;;;;;21.60;17.10;;;;;;;;;;5050863;28;20044;-68
2022/03/05 09:50:57;;;;;;;23.25;17.75;;;;;;;;;;5048151;28;20037;-69
2022/03/05 09:53:30;;;;;;;21.40;16.75;;;;;;;;;;5060213;28;20032;-69
2022/03/05 09:55:56;;;;;;;18.70;16.33;;;;;;;;;;5051493;28;20547;-68
2022/03/05 09:58:22;;;;;;;17.88;15.95;;;;;;;;;;5046202;28;20124;-67
2022/03/05 10:00:48;;;;;;;23.70;17.20;;;;;;;;;;5049003;28;20029;-67
2022/03/05 10:03:15;;;;;;;19.63;16.83;;;;;;;;;;5047080;28;20041;-67
2022/03/05 10:05:41;;;;;;;22.23;17.52;;;;;;;;;;5051080;28;20041;-69
2022/03/05 10:08:20;;;;;;;23.23;16.60;;;;;;;;;;5038960;22;20163;-70
2022/03/05 10:10:51;;;;;;;19.38;17.30;;;;;;;;;;5004062;28;20038;-70
2022/03/05 10:13:20;;;;;;;21.80;16.83;;;;;;;;;;5015021;28;20033;-70
2022/03/05 10:15:47;;;;;;;18.00;16.10;;;;;;;;;;5026843;28;20099;-70
2022/03/05 10:18:13;;;;;;;16.63;14.88;;;;;;;;;;5003949;28;20045;-70
2022/03/05 10:20:44;;;;;;;23.30;18.25;;;;;;;;;;5005451;28;20081;-70
2022/03/05 10:23:11;;;;;;;17.38;15.63;;;;;;;;;;5001891;28;20129;-70
2022/03/05 10:25:47;;;;;;;16.27;14.68;;;;;;;;;;5003541;28;20388;-70
2022/03/05 10:28:19;;;;;;;19.02;15.63;;;;;;;;;;5006200;28;20106;-70
2022/03/05 10:30:52;;;;;;;17.35;15.55;;;;;;;;;;4997592;28;20096;-70
2022/03/05 10:33:38;;;;;;;16.52;14.13;;;;;;;;;;4998455;28;20101;-70
2022/03/05 10:36:17;;;;;;;19.20;16.15;;;;;;;;;;5001439;28;20037;-70
2022/03/05 10:38:56;;;;;;;22.23;19.88;;;;;;;;;;4997894;28;20046;-70
2022/03/05 10:41:34;;;;;;;17.73;15.95;;;;;;;;;;4997793;28;20044;-70
2022/03/05 10:44:11;;;;;;;16.13;14.45;;;;;;;;;;5003160;28;20038;-72
2022/03/05 10:46:43;;;;;;;16.40;14.90;;;;;;;;;;5007508;28;20034;-72
2022/03/05 10:49:15;;;;;;;16.45;14.85;;;;;;;;;;5010428;28;20033;-72
2022/03/05 10:51:44;;;;;;;18.10;13.93;;;;;;;;;;5007306;28;20104;-72
2022/03/05 10:54:10;;;;;;;15.98;14.38;;;;;;;;;;5009485;28;20066;-72
2022/03/05 10:56:35;;;;;;;15.50;14.00;;;;;;;;;;5007423;28;20458;-71
2022/03/05 10:59:08;;;;;;;15.35;13.88;;;;;;;;;;5006413;28;20049;-71
2022/03/05 11:01:37;;;;;;;16.65;14.55;;;;;;;;;;5007428;28;20076;-73
2022/03/05 11:04:03;;;;;;;16.63;15.13;;;;;;;;;;4999149;28;20117;-73
2022/03/05 11:06:29;;;;;;;16.58;14.98;;;;;;;;;;4996666;28;20027;-71
2022/03/05 11:08:56;;;;;;;15.52;14.13;;;;;;;;;;5006388;28;20030;-71
2022/03/05 11:11:22;;;;;;;16.50;13.93;;;;;;;;;;5019958;28;20041;-73
2022/03/05 11:13:48;;;;;;;15.18;13.88;;;;;;;;;;5009109;28;20032;-74
2022/03/05 11:16:14;;;;;;;15.48;14.13;;;;;;;;;;5003353;28;20065;-72
2022/03/05 11:18:40;;;;;;;14.30;13.07;;;;;;;;;;5013360;28;20073;-71
2022/03/05 11:21:07;;;;;;;16.38;14.60;;;;;;;;;;5009637;28;20562;-72
2022/03/05 11:23:35;;;;;;;16.42;14.77;;;;;;;;;;4994604;28;20421;-73
2022/03/05 11:26:02;;;;;;;15.82;14.35;;;;;;;;;;5015116;28;20073;-72
2022/03/05 11:28:39;;;;;;;15.90;14.30;;;;;;;;;;5009417;28;20076;-73
2022/03/05 11:31:14;;;;;;;17.08;15.38;;;;;;;;;;5005440;28;20037;-72
2022/03/05 11:33:39;;;;;;;15.70;14.30;;;;;;;;;;5004331;28;20125;-72
2022/03/05 11:36:06;;;;;;;15.88;14.48;;;;;;;;;;5012685;28;20094;-72
2022/03/05 11:38:35;;;;;;;17.23;15.52;;;;;;;;;;5009305;28;20544;-72
2022/03/05 11:41:20;;;;;;;15.57;14.07;;;;;;;;;;5004904;28;20042;-72
2022/03/05 11:43:47;;;;;;;16.92;15.23;;;;;;;;;;5007851;28;20044;-73
2022/03/05 11:46:24;;;;;;;15.70;14.20;;;;;;;;;;5008541;28;20033;-72
2022/03/05 11:49:03;;;;;;;15.82;14.32;;;;;;;;;;5013334;28;20069;-73
2022/03/05 11:51:30;;;;;;;15.82;14.25;;;;;;;;;;5006874;28;20045;-72
2022/03/05 11:54:12;;;;;;;15.77;14.38;;;;;;;;;;5011577;28;20220;-72
2022/03/05 11:56:37;;;;;;;16.00;14.60;;;;;;;;;;5012336;28;20037;-73
2022/03/05 11:59:31;;;;;;;15.68;14.07;;;;;;;;;;5002901;28;20079;-73
2022/03/05 12:01:57;;;;;;;15.63;14.15;;;;;;;;;;5020113;28;20049;-72
2022/03/05 12:04:26;;;;;;;16.08;14.48;;;;;;;;;;5013486;28;20046;-74
2022/03/05 12:06:58;;;;;;;15.70;14.25;;;;;;;;;;4996502;28;20046;-71
2022/03/05 12:09:35;;;;;;;16.33;15.02;;;;;;;;;;5005138;28;20030;-73
2022/03/05 12:12:04;;;;;;;16.52;15.13;;;;;;;;;;5011333;28;20056;-73
2022/03/05 12:14:57;;;;;;;16.20;14.90;;;;;;;;;;5001780;28;20042;-75
2022/03/05 12:17:23;;;;;;;15.95;14.40;;;;;;;;;;5001971;28;20037;-74
2022/03/05 12:19:49;;;;;;;19.08;17.08;;;;;;;;;;5006398;28;20042;-73
2022/03/05 12:22:15;;;;;;;22.13;18.02;;;;;;;;;;4997532;28;20041;-74
2022/03/05 12:24:41;;;;;;;17.83;16.08;;;;;;;;;;5001085;28;20033;-73
2022/03/05 12:27:14;;;;;;;30.58;19.95;;;;;;;;;;5007358;28;20088;-74
2022/03/05 12:29:49;;;;;;;22.30;16.27;;;;;;;;;;5011272;28;20117;-74
2022/03/05 12:32:16;;;;;;;22.60;17.50;;;;;;;;;;5015898;28;20045;-73
2022/03/05 12:34:41;;;;;;;28.75;18.15;;;;;;;;;;5015649;28;20045;-73
2022/03/05 12:37:08;;;;;;;17.20;15.60;;;;;;;;;;5011757;28;20037;-72
2022/03/05 12:39:44;;;;;;;17.83;16.13;;;;;;;;;;5018555;28;20026;-72
2022/03/05 12:42:10;;;;;;;17.33;15.73;;;;;;;;;;5016774;28;20041;-73
2022/03/05 12:44:38;;;;;;;19.80;17.83;;;;;;;;;;5010964;28;20144;-74
2022/03/05 12:47:04;;;;;;;15.82;14.38;;;;;;;;;;5015228;28;20449;-73
2022/03/05 12:49:31;;;;;;;17.17;15.45;;;;;;;;;;5014771;28;20041;-72
2022/03/05 12:51:57;;;;;;;17.52;15.75;;;;;;;;;;5014593;28;20041;-72
2022/03/05 12:54:23;;;;;;;17.00;15.30;;;;;;;;;;5009841;28;20042;-73
2022/03/05 12:56:56;;;;;;;18.52;16.33;;;;;;;;;;5018525;28;20044;-72
2022/03/05 12:59:23;;;;;;;17.20;15.60;;;;;;;;;;5016455;28;20033;-73
2022/03/05 13:01:49;;;;;;;23.02;20.75;;;;;;;;;;5015047;28;20040;-71
2022/03/05 13:04:16;;;;;;;17.02;15.43;;;;;;;;;;5013313;28;20342;-73
2022/03/05 13:06:46;;;;;;;18.27;16.58;;;;;;;;;;5008437;28;20042;-73
2022/03/05 13:09:16;;;;;;;15.85;14.45;;;;;;;;;;5017830;28;20041;-72
2022/03/05 13:11:46;;;;;;;16.88;15.35;;;;;;;;;;5026474;28;20050;-72
2022/03/05 13:14:19;;;;;;;17.00;15.43;;;;;;;;;;5015331;28;20041;-73
2022/03/05 13:16:49;;;;;;;18.92;17.02;;;;;;;;;;5014511;28;20025;-74
2022/03/05 13:19:15;;;;;;;21.27;19.13;;;;;;;;;;5011553;28;20133;-74
2022/03/05 13:21:46;;;;;;;17.92;15.02;;;;;;;;;;5017245;28;20116;-74
2022/03/05 13:24:15;;;;;;;15.88;14.35;;;;;;;;;;5016878;28;20038;-72
2022/03/05 13:26:44;;;;;;;16.40;14.90;;;;;;;;;;5013444;28;20120;-72
2022/03/05 13:29:12;;;;;;;16.08;14.68;;;;;;;;;;5014301;28;20111;-72
2022/03/05 13:31:38;;;;;;;15.82;14.35;;;;;;;;;;5015174;28;20413;-72
2022/03/05 13:34:04;;;;;;;15.10;13.70;;;;;;;;;;5010373;28;20045;-73
2022/03/05 13:36:39;;;;;;;16.73;15.02;;;;;;;;;;5002650;28;20058;-73
2022/03/05 13:39:08;;;;;;;16.13;14.63;;;;;;;;;;5009257;28;20064;-72
2022/03/05 13:41:34;;;;;;;16.37;14.70;;;;;;;;;;5000989;28;20026;-72
2022/03/05 13:44:03;;;;;;;16.02;14.45;;;;;;;;;;5000565;28;20091;-72
2022/03/05 13:46:30;;;;;;;16.00;14.50;;;;;;;;;;5003205;28;20088;-74
2022/03/05 13:48:58;;;;;;;15.43;14.02;;;;;;;;;;5009114;28;20030;-73
2022/03/05 13:51:30;;;;;;;15.23;13.77;;;;;;;;;;5005367;28;20095;-74
2022/03/05 13:53:58;;;;;;;16.13;14.63;;;;;;;;;;4998503;28;20114;-74
2022/03/05 13:56:25;;;;;;;15.57;14.18;;;;;;;;;;5007774;28;20048;-73
2022/03/05 13:58:52;;;;;;;15.38;13.88;;;;;;;;;;5006050;28;20065;-73
2022/03/05 14:01:32;;;;;;;15.57;13.98;;;;;;;;;;4996901;28;20733;-72
2022/03/05 14:04:04;;;;;;;;;;;;;;;;;;5005611;28;20040;-72
2022/03/05 14:06:29;;;;;;;14.68;13.38;;;;;;;;;;4997871;28;19968;-73
2022/03/05 14:08:55;;;;;;;15.98;14.48;;;;;;;;;;5006173;28;20046;-74
2022/03/05 14:11:27;;;;;;;15.18;13.85;;;;;;;;;;4997299;28;20249;-72
2022/03/05 14:13:53;;;;;;;15.10;13.75;;;;;;;;;;5004707;28;20186;-73
2022/03/05 14:16:45;;;;;;;15.38;14.00;;;;;;;;;;4995534;28;20132;-73
2022/03/05 14:19:28;;;;;;;15.63;14.23;;;;;;;;;;5009307;28;20141;-73